Time;durP1;ratioP1;P1;durP2;ratioP2;P2;SDS_P1;SDS_P2;PMS_P1;PMS_P2;Temp;Humidity;BMP_temperature;BMP_pressure;BME280_temperature;BME280_humidity;BME280_pressure;Samples;Min_cycle;Max_cycle;Signal;HPM_P1;HPM_P2
2023/03/29 00:00:49;;;;;;;3.27;2.80;;;;;;;5.56;100.00;152789.75;5023947;28;20958;-77
2023/03/29 00:03:16;;;;;;;4.17;3.10;;;;;;;5.52;100.00;152780.78;5029913;28;20463;-77
2023/03/29 00:05:43;;;;;;;3.10;2.70;;;;;;;5.53;100.00;152782.06;5023086;28;20506;-78
2023/03/29 00:08:13;;;;;;;3.13;2.63;;;;;;;5.51;100.00;152776.88;5025790;28;20572;-78
2023/03/29 00:10:41;;;;;;;4.60;3.47;;;;;;;5.45;100.00;152762.69;5028827;28;20459;-78
2023/03/29 00:13:08;;;;;;;4.03;2.93;;;;;;;5.54;100.00;152784.63;5024090;28;20463;-78
2023/03/29 00:15:35;;;;;;;5.43;3.37;;;;;;;5.56;100.00;152789.75;5022339;28;20811;-78
2023/03/29 00:18:01;;;;;;;3.70;2.77;;;;;;;5.58;100.00;152794.97;5018965;28;20781;-77
2023/03/29 00:20:28;;;;;;;3.77;3.20;;;;;;;5.52;100.00;152780.78;5029974;28;20464;-78
2023/03/29 00:22:55;;;;;;;3.50;2.70;;;;;;;5.46;100.00;152764.00;5019450;28;20473;-77
2023/03/29 00:25:22;;;;;;;4.40;3.20;;;;;;;5.38;100.00;152744.66;5018976;28;20556;-78
2023/03/29 00:27:50;;;;;;;6.23;4.23;;;;;;;5.29;100.00;152720.19;5031493;28;20472;-77
2023/03/29 00:30:17;;;;;;;4.60;3.40;;;;;;;5.25;100.00;152711.13;5016243;28;20496;-77
2023/03/29 00:32:43;;;;;;;3.60;3.20;;;;;;;5.16;100.00;152686.66;4997488;28;20943;-77
2023/03/29 00:35:10;;;;;;;4.03;2.90;;;;;;;5.17;100.00;152689.22;5002365;28;20579;-78
2023/03/29 00:37:38;;;;;;;4.57;4.00;;;;;;;5.25;100.00;152711.13;5029223;28;20452;-78
2023/03/29 00:40:09;;;;;;;4.67;3.37;;;;;;;5.26;100.00;152713.75;5029369;28;20460;-78
2023/03/29 00:42:36;;;;;;;4.00;3.40;;;;;;;5.14;100.00;152681.47;5030023;28;20535;-78
2023/03/29 00:45:07;;;;;;;4.00;3.00;;;;;;;5.18;100.00;152691.81;5017227;28;20494;-77
2023/03/29 00:47:40;;;;;;;4.60;3.10;;;;;;;5.19;100.00;152695.66;5025230;28;20711;-77
2023/03/29 00:50:12;;;;;;;4.33;3.53;;;;;;;5.20;100.00;152698.25;5029525;28;20457;-78
2023/03/29 00:52:39;;;;;;;5.20;3.47;;;;;;;5.11;100.00;152675.03;5014194;28;20452;-77
2023/03/29 00:55:11;;;;;;;4.63;3.23;;;;;;;5.21;100.00;152700.84;5030463;28;20467;-78
2023/03/29 00:57:39;;;;;;;6.23;4.10;;;;;;;5.14;100.00;152682.78;5026144;28;20501;-77
2023/03/29 01:00:09;;;;;;;5.33;3.70;;;;;;;5.15;100.00;152684.06;5029549;28;20597;-77
2023/03/29 01:02:38;;;;;;;4.30;3.33;;;;;;;5.08;100.00;152666.03;5029836;28;20456;-77
2023/03/29 01:05:07;;;;;;;5.10;3.43;;;;;;;5.06;100.00;152660.84;5018694;28;20467;-77
2023/03/29 01:07:38;;;;;;;3.90;3.10;;;;;;;5.04;100.00;152657.00;5015673;28;20479;-77
2023/03/29 01:10:09;;;;;;;3.90;3.30;;;;;;;5.15;100.00;152684.06;5028079;28;20451;-77
2023/03/29 01:12:40;;;;;;;5.30;3.43;;;;;;;5.05;100.00;152658.31;5003353;28;20835;-78
2023/03/29 01:15:10;;;;;;;4.00;2.77;;;;;;;4.95;100.00;152633.78;5016299;28;20489;-77
2023/03/29 01:17:39;;;;;;;4.20;3.00;;;;;;;5.03;100.00;152653.16;5030546;28;20449;-77
2023/03/29 01:20:13;;;;;;;3.13;2.83;;;;;;;4.95;100.00;152632.53;5026911;28;20456;-77
2023/03/29 01:22:51;;;;;;;4.23;3.40;;;;;;;4.93;100.00;152628.63;5028628;28;20579;-77
2023/03/29 01:25:25;;;;;;;3.67;3.17;;;;;;;4.98;100.00;152640.28;5002962;28;20512;-77
2023/03/29 01:27:55;;;;;;;3.60;3.30;;;;;;;4.94;100.00;152631.22;5010078;28;20461;-77
2023/03/29 01:30:26;;;;;;;4.40;3.40;;;;;;;4.91;100.00;152623.50;5027497;28;20476;-77
2023/03/29 01:32:57;;;;;;;3.87;3.23;;;;;;;4.92;100.00;152626.09;5003548;28;20959;-77
2023/03/29 01:35:27;;;;;;;5.00;3.43;;;;;;;5.06;100.00;152660.84;5049642;28;20467;-77
2023/03/29 01:37:58;;;;;;;3.23;2.87;;;;;;;5.04;100.00;152657.00;5023662;28;20916;-77
2023/03/29 01:40:26;;;;;;;4.77;3.10;;;;;;;4.99;100.00;152642.81;5024631;28;20470;-77
2023/03/29 01:42:57;;;;;;;4.17;3.13;;;;;;;4.99;100.00;152642.81;5027346;28;20448;-77
2023/03/29 01:45:27;;;;;;;4.27;3.13;;;;;;;4.97;100.00;152637.69;5014125;28;20506;-77
2023/03/29 01:47:57;;;;;;;4.00;3.10;;;;;;;4.97;100.00;152638.97;5007847;28;20469;-78
2023/03/29 01:50:29;;;;;;;4.17;3.27;;;;;;;4.99;100.00;152642.81;5007119;28;20863;-77
2023/03/29 01:52:57;;;;;;;4.37;3.93;;;;;;;5.00;100.00;152645.41;5008134;28;20446;-77
2023/03/29 01:55:26;;;;;;;3.30;2.50;;;;;;;5.01;100.00;152647.97;4999752;28;20820;-77
2023/03/29 01:57:55;;;;;;;5.60;3.70;;;;;;;5.01;100.00;152647.97;5019422;28;20699;-77
2023/03/29 02:00:24;;;;;;;3.87;3.00;;;;;;;4.99;100.00;152642.81;5016353;28;21043;-77
2023/03/29 02:02:52;;;;;;;3.50;2.90;;;;;;;4.99;100.00;152644.13;4997754;28;20855;-77
2023/03/29 02:05:19;;;;;;;4.30;3.30;;;;;;;4.95;100.00;152633.78;5005029;28;20453;-77
2023/03/29 02:07:47;;;;;;;3.77;3.10;;;;;;;4.97;100.00;152637.69;5025949;28;20516;-77
2023/03/29 02:10:15;;;;;;;3.50;2.73;;;;;;;5.00;100.00;152645.41;4998037;28;20468;-77
2023/03/29 02:12:42;;;;;;;3.10;2.57;;;;;;;5.01;100.00;152647.97;5017261;28;20475;-78
2023/03/29 02:15:13;;;;;;;3.37;3.00;;;;;;;4.99;100.00;152642.81;5024520;28;21028;-77
2023/03/29 02:17:40;;;;;;;5.00;3.40;;;;;;;4.97;100.00;152638.97;5020083;28;20457;-77
2023/03/29 02:20:13;;;;;;;3.20;2.90;;;;;;;4.95;100.00;152633.78;4996588;28;20450;-77
2023/03/29 02:22:48;;;;;;;3.73;2.90;;;;;;;4.96;100.00;152635.06;5011488;28;20570;-77
2023/03/29 02:25:16;;;;;;;3.93;2.87;;;;;;;4.97;100.00;152637.69;5018774;28;20510;-77
2023/03/29 02:27:43;;;;;;;3.83;3.10;;;;;;;4.95;100.00;152633.78;5010871;28;20786;-77
2023/03/29 02:30:13;;;;;;;4.07;3.10;;;;;;;4.96;100.00;152635.06;5017765;28;20452;-77
2023/03/29 02:32:48;;;;;;;5.03;3.00;;;;;;;4.98;100.00;152640.28;5032729;28;20451;-77
2023/03/29 02:35:18;;;;;;;3.60;3.20;;;;;;;4.96;100.00;152636.38;5005498;28;20452;-77
2023/03/29 02:37:48;;;;;;;4.37;3.27;;;;;;;4.95;100.00;152632.53;5009280;28;20479;-77
2023/03/29 02:40:16;;;;;;;4.37;3.60;;;;;;;4.97;100.00;152637.69;5028751;28;20483;-77
2023/03/29 02:42:44;;;;;;;5.07;3.60;;;;;;;5.02;100.00;152650.56;5032373;28;20812;-77
2023/03/29 02:45:14;;;;;;;4.13;3.10;;;;;;;5.02;100.00;152651.84;5033576;28;20969;-77
2023/03/29 02:47:44;;;;;;;3.50;2.57;;;;;;;5.01;100.00;152649.25;5030087;28;20819;-77
2023/03/29 02:50:11;;;;;;;4.03;3.30;;;;;;;4.98;100.00;152641.53;5028690;28;20733;-77
2023/03/29 02:52:41;;;;;;;7.03;2.87;;;;;;;4.97;100.00;152637.69;5025810;28;20448;-78
2023/03/29 02:55:10;;;;;;;4.17;3.47;;;;;;;4.97;100.00;152637.69;5025232;28;20459;-78
2023/03/29 02:57:38;;;;;;;3.63;2.77;;;;;;;4.94;100.00;152631.22;5012721;28;20464;-78
2023/03/29 03:00:08;;;;;;;4.23;2.97;;;;;;;4.92;100.00;152626.09;5007699;28;20453;-77
2023/03/29 03:02:37;;;;;;;4.10;3.43;;;;;;;4.93;100.00;152629.94;5005072;28;20491;-78
2023/03/29 03:05:05;;;;;;;3.87;3.10;;;;;;;4.90;100.00;152620.91;5013525;28;20452;-78
2023/03/29 03:07:33;;;;;;;5.03;3.50;;;;;;;4.87;100.00;152614.47;5009791;28;20453;-77
2023/03/29 03:10:00;;;;;;;4.17;3.10;;;;;;;4.90;100.00;152622.19;5021314;28;20492;-77
2023/03/29 03:12:27;;;;;;;3.60;2.93;;;;;;;4.87;100.00;152614.47;5029724;28;20481;-77
2023/03/29 03:14:54;;;;;;;4.43;3.00;;;;;;;4.89;100.00;152618.34;5016203;28;20428;-77
2023/03/29 03:17:21;;;;;;;2.63;2.40;;;;;;;4.90;100.00;152622.19;5004455;28;20452;-77
2023/03/29 03:19:51;;;;;;;4.90;3.70;;;;;;;4.91;100.00;152624.78;5004301;28;20485;-77
2023/03/29 03:22:18;;;;;;;4.13;3.57;;;;;;;4.90;100.00;152622.19;5029882;28;20874;-78
2023/03/29 03:24:45;;;;;;;4.37;2.83;;;;;;;4.90;100.00;152620.91;5011631;28;20567;-77
2023/03/29 03:27:12;;;;;;;4.33;3.30;;;;;;;4.92;100.00;152627.34;5003451;28;20457;-77
2023/03/29 03:29:40;;;;;;;4.20;3.30;;;;;;;4.92;100.00;152627.34;5006073;28;20472;-77
2023/03/29 03:32:25;;;;;;;4.13;3.20;;;;;;;4.93;100.00;152628.63;5029251;28;20602;-77
2023/03/29 03:35:12;;;;;;;3.73;3.23;;;;;;;4.94;100.00;152631.22;5026966;28;20483;-77
2023/03/29 03:37:40;;;;;;;7.67;3.87;;;;;;;4.95;100.00;152633.78;5006018;28;20460;-77
2023/03/29 03:40:10;;;;;;;3.53;3.03;;;;;;;4.97;100.00;152637.69;5031021;28;20444;-77
2023/03/29 03:42:38;;;;;;;4.20;3.40;;;;;;;5.01;100.00;152647.97;5021927;28;20459;-77
2023/03/29 03:45:07;;;;;;;3.77;3.17;;;;;;;5.00;100.00;152645.41;5003975;28;20500;-78
2023/03/29 03:47:57;;;;;;;3.23;2.70;;;;;;;5.02;100.00;152650.56;5038160;28;20448;-77
2023/03/29 03:50:52;;;;;;;3.90;3.10;;;;;;;5.04;100.00;152655.69;5024002;28;20465;-77
2023/03/29 03:53:20;;;;;;;3.30;3.00;;;;;;;5.05;100.00;152659.59;5014299;28;20467;-78
2023/03/29 03:56:08;;;;;;;3.33;3.03;;;;;;;5.08;100.00;152667.34;5024495;28;20847;-77
2023/03/29 03:58:43;;;;;;;3.77;2.83;;;;;;;5.11;100.00;152673.78;5011368;28;20436;-77
2023/03/29 04:01:10;;;;;;;5.00;3.30;;;;;;;5.12;100.00;152677.63;5025402;28;20533;-77
2023/03/29 04:03:44;;;;;;;2.67;2.30;;;;;;;5.14;100.00;152682.78;5007065;28;20559;-77
2023/03/29 04:06:16;;;;;;;3.97;3.30;;;;;;;5.16;100.00;152686.66;5014300;28;20464;-77
2023/03/29 04:09:09;;;;;;;4.77;2.90;;;;;;;5.18;100.00;152693.09;5017749;28;20480;-77
2023/03/29 04:11:42;;;;;;;3.57;2.43;;;;;;;5.21;100.00;152700.84;5023499;28;20859;-77
2023/03/29 04:14:10;;;;;;;5.33;3.53;;;;;;;5.23;100.00;152706.00;5030994;28;20820;-77
2023/03/29 04:16:52;;;;;;;3.60;2.97;;;;;;;5.28;100.00;152717.59;5018579;28;20428;-77
2023/03/29 04:19:51;;;;;;;4.50;2.50;;;;;;;5.26;100.00;152713.75;5010403;28;20453;-78
2023/03/29 04:22:19;;;;;;;2.57;2.30;;;;;;;5.28;100.00;152717.59;5003467;28;21030;-77
2023/03/29 04:24:46;;;;;;;2.60;2.40;;;;;;;5.27;100.00;152716.28;5009470;28;20923;-77
2023/03/29 04:27:50;;;;;;;2.60;2.30;;;;;;;5.26;100.00;152713.75;5021259;28;20455;-77
2023/03/29 04:30:49;;;;;;;2.53;2.30;;;;;;;5.29;100.00;152720.19;5019990;28;20453;-77
2023/03/29 04:33:33;;;;;;;2.73;2.27;;;;;;;5.32;100.00;152729.16;5019465;28;20445;-77
2023/03/29 04:36:01;;;;;;;2.97;2.20;;;;;;;5.34;100.00;152733.06;5028725;28;20981;-77
2023/03/29 04:38:34;;;;;;;3.07;2.40;;;;;;;5.37;100.00;152742.09;5029644;28;20550;-77
2023/03/29 04:41:02;;;;;;;3.77;2.13;;;;;;;5.39;100.00;152745.94;5011552;28;20826;-77
2023/03/29 04:43:56;;;;;;;2.50;1.90;;;;;;;5.40;100.00;152748.56;5022221;28;20683;-77
2023/03/29 04:46:31;;;;;;;2.73;2.30;;;;;;;5.43;100.00;152757.53;5006145;28;20527;-77
2023/03/29 04:49:16;;;;;;;2.10;1.70;;;;;;;5.46;100.00;152764.00;5016777;28;20483;-77
2023/03/29 04:51:47;;;;;;;2.43;2.10;;;;;;;5.48;100.00;152769.19;5043356;28;20453;-77
2023/03/29 04:54:18;;;;;;;3.17;1.70;;;;;;;5.51;100.00;152776.88;5033566;28;20465;-77
2023/03/29 04:57:03;;;;;;;2.77;2.13;;;;;;;5.50;100.00;152775.63;5018349;28;20478;-77
2023/03/29 04:59:38;;;;;;;2.40;2.00;;;;;;;5.50;100.00;152775.63;5022493;28;20447;-77
2023/03/29 05:02:15;;;;;;;4.70;2.40;;;;;;;5.54;100.00;152785.91;5022594;28;20993;-77
2023/03/29 05:04:44;;;;;;;2.80;1.90;;;;;;;5.56;100.00;152789.75;5008374;28;20523;-77
2023/03/29 05:07:16;;;;;;;3.73;2.10;;;;;;;5.54;100.00;152784.63;5013044;28;20521;-77
2023/03/29 05:09:44;;;;;;;2.50;1.77;;;;;;;5.53;100.00;152782.06;5013941;28;20480;-77
2023/03/29 05:12:12;;;;;;;2.33;1.83;;;;;;;5.58;100.00;152793.66;5013206;28;20520;-77
2023/03/29 05:14:52;;;;;;;2.30;1.63;;;;;;;5.57;100.00;152791.06;5013373;28;20452;-77
2023/03/29 05:17:21;;;;;;;1.87;1.70;;;;;;;5.60;100.00;152800.09;5034017;28;20510;-77
2023/03/29 05:19:49;;;;;;;2.07;1.77;;;;;;;5.65;100.00;152811.69;5015223;28;20535;-77
2023/03/29 05:22:16;;;;;;;2.03;1.57;;;;;;;5.68;100.00;152820.75;5016633;28;20838;-77
2023/03/29 05:24:43;;;;;;;2.97;2.50;;;;;;;5.71;100.00;152828.47;5013675;28;20463;-77
2023/03/29 05:27:15;;;;;;;2.10;1.50;;;;;;;5.72;100.00;152831.03;5014834;28;20449;-77
2023/03/29 05:29:45;;;;;;;2.20;1.53;;;;;;;5.74;100.00;152836.22;4999921;28;20480;-77
2023/03/29 05:32:32;;;;;;;2.60;1.73;;;;;;;5.81;99.87;152854.28;5016439;28;20532;-77
2023/03/29 05:34:59;;;;;;;3.30;2.10;;;;;;;5.81;99.43;152854.28;5014399;28;20445;-77
2023/03/29 05:37:27;;;;;;;2.70;1.63;;;;;;;5.84;100.00;152860.72;4999237;28;20529;-77
2023/03/29 05:39:58;;;;;;;6.23;2.10;;;;;;;5.87;100.00;152868.50;5017389;28;20847;-77
2023/03/29 05:42:32;;;;;;;2.47;1.43;;;;;;;5.87;100.00;152869.81;5000226;28;20506;-77
2023/03/29 05:45:05;;;;;;;2.50;1.73;;;;;;;5.86;100.00;152867.22;4999385;28;20560;-77
2023/03/29 05:47:32;;;;;;;3.60;1.63;;;;;;;5.87;98.54;152869.81;5013819;28;20453;-77
2023/03/29 05:49:59;;;;;;;2.80;2.10;;;;;;;5.91;98.73;152880.09;4996790;28;20481;-77
2023/03/29 05:52:26;;;;;;;3.47;2.07;;;;;;;5.95;98.82;152890.44;5016567;28;20555;-77
2023/03/29 05:54:52;;;;;;;2.20;2.00;;;;;;;5.98;98.63;152898.16;4997849;28;20988;-77
2023/03/29 05:57:20;;;;;;;7.00;2.30;;;;;;;5.98;99.91;152898.16;5014037;28;20872;-77
2023/03/29 05:59:48;;;;;;;2.10;1.67;;;;;;;5.99;99.60;152900.75;5013492;28;20472;-77
2023/03/29 06:02:15;;;;;;;2.80;1.57;;;;;;;6.01;99.05;152904.66;5000176;28;20547;-77
2023/03/29 06:04:47;;;;;;;2.30;1.43;;;;;;;6.04;100.00;152913.63;4998534;28;20453;-77
2023/03/29 06:07:37;;;;;;;1.73;1.60;;;;;;;6.01;99.98;152905.88;5016355;28;20465;-77
2023/03/29 06:10:12;;;;;;;1.60;1.33;;;;;;;6.05;100.00;152914.94;5020313;28;20567;-77
2023/03/29 06:12:43;;;;;;;3.27;1.70;;;;;;;6.04;100.00;152913.63;5002022;28;21022;-77
2023/03/29 06:15:13;;;;;;;2.60;1.57;;;;;;;6.06;98.41;152918.78;5003856;28;20943;-77
2023/03/29 06:17:49;;;;;;;2.07;1.60;;;;;;;6.12;99.54;152934.28;5010007;28;20480;-77
2023/03/29 06:20:17;;;;;;;2.20;1.70;;;;;;;6.13;98.02;152935.59;5020308;28;21025;-77
2023/03/29 06:22:48;;;;;;;2.60;1.90;;;;;;;6.20;99.20;152952.31;5007033;28;20489;-77
2023/03/29 06:25:16;;;;;;;2.70;1.60;;;;;;;6.20;98.35;152952.31;5017389;28;20464;-77
2023/03/29 06:27:46;;;;;;;1.70;1.23;;;;;;;6.24;97.46;152962.66;5018066;28;20453;-77
2023/03/29 06:30:16;;;;;;;2.33;1.67;;;;;;;6.31;98.53;152980.72;5017636;28;20559;-77
2023/03/29 06:32:49;;;;;;;2.50;1.80;;;;;;;6.31;99.34;152980.72;5019218;28;20539;-77
2023/03/29 06:35:36;;;;;;;3.20;1.60;;;;;;;6.32;96.82;152984.63;5021810;28;20855;-77
2023/03/29 06:38:07;;;;;;;2.77;1.90;;;;;;;6.37;94.59;152997.53;5009044;28;20452;-77
2023/03/29 06:41:03;;;;;;;3.70;1.90;;;;;;;6.45;93.58;153016.88;5019810;28;20475;-77
2023/03/29 06:43:41;;;;;;;2.80;1.83;;;;;;;6.49;91.48;153027.16;5007329;28;20547;-77
2023/03/29 06:46:15;;;;;;;2.20;1.47;;;;;;;6.56;91.96;153045.25;5004665;28;20456;-77
2023/03/29 06:48:54;;;;;;;1.67;1.13;;;;;;;6.62;94.69;153060.72;5017922;28;20459;-77
2023/03/29 06:51:23;;;;;;;3.67;1.70;;;;;;;6.63;94.68;153063.31;5018354;28;20487;-77
2023/03/29 06:53:49;;;;;;;2.60;2.00;;;;;;;6.68;93.93;153076.22;5001517;28;20457;-77
2023/03/29 06:56:16;;;;;;;2.63;1.63;;;;;;;6.74;93.60;153093.03;5020101;28;20912;-77
2023/03/29 06:58:52;;;;;;;1.97;1.77;;;;;;;6.80;94.85;153105.91;5020064;28;20701;-77
2023/03/29 07:01:43;;;;;;;2.93;1.63;;;;;;;6.79;94.88;153104.63;5011842;28;20451;-77
2023/03/29 07:04:19;;;;;;;2.37;1.83;;;;;;;6.85;96.28;153120.13;5018456;28;20891;-77
2023/03/29 07:07:10;;;;;;;3.20;1.90;;;;;;;6.87;94.45;153123.97;5020014;28;20445;-77
2023/03/29 07:09:38;;;;;;;3.10;2.10;;;;;;;6.91;93.95;153135.59;5020854;28;20551;-77
2023/03/29 07:12:31;;;;;;;3.13;1.90;;;;;;;6.98;93.33;153153.69;5000330;28;20463;-77
2023/03/29 07:15:00;;;;;;;2.40;1.80;;;;;;;7.04;92.45;153167.91;5007406;28;20971;-77
2023/03/29 07:17:48;;;;;;;2.60;2.10;;;;;;;7.12;92.49;153189.81;5020082;28;20462;-77
2023/03/29 07:20:17;;;;;;;2.50;1.63;;;;;;;7.15;92.39;153197.56;5009307;28;20617;-77
2023/03/29 07:22:50;;;;;;;4.10;2.03;;;;;;;7.18;91.82;153205.31;5016189;28;20624;-77
2023/03/29 07:25:18;;;;;;;2.30;2.10;;;;;;;7.27;91.87;153227.28;4999722;28;20789;-77
2023/03/29 07:27:45;;;;;;;3.40;2.57;;;;;;;7.28;91.28;153231.13;5001571;28;20475;-77
2023/03/29 07:30:15;;;;;;;3.07;1.77;;;;;;;7.30;91.26;153235.03;5016897;28;20969;-77
2023/03/29 07:32:44;;;;;;;2.43;1.83;;;;;;;7.34;90.85;153246.63;5018016;28;20785;-77
2023/03/29 07:35:23;;;;;;;4.23;1.97;;;;;;;7.41;90.19;153262.16;5017423;28;20820;-77
2023/03/29 07:37:51;;;;;;;4.40;2.13;;;;;;;7.44;89.69;153269.91;5019134;28;20641;-77
2023/03/29 07:40:22;;;;;;;3.50;1.77;;;;;;;7.49;89.53;153284.13;5000670;28;20457;-77
2023/03/29 07:43:09;;;;;;;2.37;1.83;;;;;;;7.50;90.66;153285.38;5008016;28;20469;-77
2023/03/29 07:45:39;;;;;;;3.70;1.60;;;;;;;7.53;89.71;153294.44;5003351;28;20547;-77
2023/03/29 07:48:09;;;;;;;7.07;1.83;;;;;;;7.58;90.80;153306.03;5016105;28;20511;-77
2023/03/29 07:50:50;;;;;;;3.03;1.70;;;;;;;7.68;90.57;153333.16;5004430;28;21004;-77
2023/03/29 07:53:20;;;;;;;4.03;2.10;;;;;;;7.70;90.37;153337.06;5001773;28;20444;-77
2023/03/29 07:55:48;;;;;;;3.40;2.37;;;;;;;7.72;88.43;153342.22;5016405;28;20448;-77
2023/03/29 07:58:46;;;;;;;3.77;2.00;;;;;;;7.75;90.67;153351.28;5000242;28;20456;-77
2023/03/29 08:01:15;;;;;;;2.47;1.67;;;;;;;7.77;89.97;153355.13;5006794;28;20502;-77
2023/03/29 08:04:00;;;;;;;2.50;1.70;;;;;;;7.85;90.89;153375.81;5019617;28;20788;-77
2023/03/29 08:06:49;;;;;;;2.60;1.83;;;;;;;7.84;88.69;153374.50;5016101;28;20530;-77
2023/03/29 08:09:17;;;;;;;2.67;1.50;;;;;;;7.92;88.61;153395.19;5001534;28;20472;-77
2023/03/29 08:11:44;;;;;;;2.33;1.53;;;;;;;7.96;87.57;153404.22;5015636;28;20858;-77
2023/03/29 08:14:22;;;;;;;3.50;1.83;;;;;;;8.04;86.98;153423.63;4999065;28;20536;-77
2023/03/29 08:17:05;;;;;;;2.90;1.70;;;;;;;8.14;86.47;153449.44;5000169;28;20582;-77
2023/03/29 08:19:38;;;;;;;2.20;1.50;;;;;;;8.20;86.10;153466.28;4999748;28;20548;-77
2023/03/29 08:22:09;;;;;;;2.23;1.50;;;;;;;8.29;86.62;153489.56;5001697;28;20479;-77
2023/03/29 08:25:06;;;;;;;1.70;1.43;;;;;;;8.31;85.91;153494.72;5006085;28;20467;-77
2023/03/29 08:27:38;;;;;;;2.60;1.80;;;;;;;8.40;85.67;153518.00;4998417;28;20434;-77
2023/03/29 08:30:08;;;;;;;2.50;1.70;;;;;;;8.46;84.85;153532.22;5016374;28;20508;-77
2023/03/29 08:32:37;;;;;;;3.00;1.93;;;;;;;8.49;85.28;153539.97;5000169;28;20799;-77
2023/03/29 08:35:05;;;;;;;2.97;2.10;;;;;;;8.52;84.83;153549.00;5001914;28;20453;-77
2023/03/29 08:37:51;;;;;;;1.60;1.30;;;;;;;8.61;84.12;153569.69;5001546;28;21461;-76
2023/03/29 08:40:21;;;;;;;3.90;2.10;;;;;;;8.57;85.21;153561.97;5015589;28;20456;-77
2023/03/29 08:43:14;;;;;;;3.03;2.00;;;;;;;8.58;86.58;153563.22;5017613;28;20456;-77
2023/03/29 08:46:23;;;;;;;1.90;1.43;;;;;;;8.60;85.91;153567.13;4989458;28;20531;-77
2023/03/29 08:48:52;;;;;;;1.73;1.57;;;;;;;8.56;83.82;153559.38;5007252;28;20596;-77
2023/03/29 08:51:25;;;;;;;2.10;1.60;;;;;;;8.60;83.94;153567.13;5013553;28;20469;-77
2023/03/29 08:53:56;;;;;;;2.33;1.60;;;;;;;8.65;83.51;153580.03;5005565;28;20643;-77
2023/03/29 08:56:34;;;;;;;2.13;1.73;;;;;;;8.81;82.24;153621.41;4996781;28;20485;-77
2023/03/29 08:59:23;;;;;;;2.47;1.87;;;;;;;8.89;84.51;153642.13;5007565;28;20551;-77
2023/03/29 09:01:52;;;;;;;2.80;1.90;;;;;;;8.90;83.55;153644.66;5006514;28;21948;-77
2023/03/29 09:04:21;;;;;;;5.80;1.70;;;;;;;8.96;82.12;153661.50;4997971;28;20539;-77
2023/03/29 09:06:58;;;;;;;2.60;1.70;;;;;;;8.99;81.31;153669.25;5000963;28;20530;-77
2023/03/29 09:09:33;;;;;;;5.60;2.00;;;;;;;9.12;83.09;153702.88;5014703;28;20448;-77
2023/03/29 09:12:19;;;;;;;3.03;2.10;;;;;;;9.20;81.86;153722.28;5006158;28;20559;-76
2023/03/29 09:15:05;;;;;;;2.07;1.67;;;;;;;9.24;81.79;153732.59;5000299;28;20464;-76
2023/03/29 09:17:41;;;;;;;3.47;2.10;;;;;;;9.29;79.65;153745.59;5006032;28;20478;-76
2023/03/29 09:20:21;;;;;;;3.63;2.23;;;;;;;9.48;79.10;153793.41;4996666;28;20456;-76
2023/03/29 09:22:52;;;;;;;2.20;1.57;;;;;;;9.58;77.76;153819.31;5004386;28;20559;-76
2023/03/29 09:25:24;;;;;;;3.70;2.17;;;;;;;9.64;77.20;153836.09;5012589;28;20460;-77
2023/03/29 09:27:57;;;;;;;2.60;1.70;;;;;;;9.69;77.73;153847.72;5013347;28;20459;-76
2023/03/29 09:30:40;;;;;;;2.93;1.87;;;;;;;9.80;75.00;153876.22;5018421;28;20476;-76
2023/03/29 09:33:13;;;;;;;3.10;1.97;;;;;;;9.86;77.56;153891.75;5006880;28;20436;-77
2023/03/29 09:36:01;;;;;;;3.00;2.10;;;;;;;9.89;76.12;153898.22;5014604;28;20460;-77
2023/03/29 09:38:28;;;;;;;7.57;2.40;;;;;;;9.96;77.48;153917.63;4997559;28;20456;-77
2023/03/29 09:40:59;;;;;;;2.87;2.00;;;;;;;9.98;78.13;153921.53;5011434;28;20455;-77
2023/03/29 09:43:31;;;;;;;2.93;1.67;;;;;;;10.03;75.96;153934.47;5013482;28;20475;-76
2023/03/29 09:46:02;;;;;;;2.70;2.10;;;;;;;10.13;74.30;153960.41;5011720;28;20950;-76
2023/03/29 09:48:31;;;;;;;4.40;1.70;;;;;;;10.24;74.05;153990.19;5012752;28;20447;-76
2023/03/29 09:51:00;;;;;;;2.67;1.60;;;;;;;10.36;77.40;154021.22;5011553;28;20504;-76
2023/03/29 09:53:27;;;;;;;2.00;1.57;;;;;;;10.33;75.61;154013.47;5015250;28;20449;-76
2023/03/29 09:56:02;;;;;;;2.37;1.70;;;;;;;10.47;73.64;154048.41;5005470;28;20445;-77
2023/03/29 09:58:45;;;;;;;2.03;1.53;;;;;;;10.53;73.95;154062.66;4996245;28;20519;-76
2023/03/29 10:01:16;;;;;;;2.87;1.93;;;;;;;10.59;71.94;154078.22;4995536;28;20461;-77
2023/03/29 10:03:48;;;;;;;1.83;1.27;;;;;;;10.72;73.35;154113.13;5000019;28;20508;-77
2023/03/29 10:06:16;;;;;;;5.43;1.80;;;;;;;10.83;71.38;154140.31;5013362;28;20975;-77
2023/03/29 10:08:53;;;;;;;1.90;1.50;;;;;;;10.92;70.65;154164.97;5027111;28;20988;-77
2023/03/29 10:11:23;;;;;;;3.60;2.10;;;;;;;11.05;72.70;154196.03;4997755;28;20472;-77
2023/03/29 10:13:53;;;;;;;2.73;1.87;;;;;;;11.03;69.69;154192.16;4996364;28;20452;-77
2023/03/29 10:16:22;;;;;;;2.17;1.70;;;;;;;11.18;69.53;154229.72;5014186;28;20444;-77
2023/03/29 10:18:50;;;;;;;2.20;1.83;;;;;;;11.27;66.85;154254.34;5011678;28;20446;-77
2023/03/29 10:21:19;;;;;;;2.00;1.80;;;;;;;11.41;68.01;154290.59;5013689;28;20531;-77
2023/03/29 10:23:45;;;;;;;2.00;1.80;;;;;;;11.49;66.26;154310.06;5013087;28;20472;-77
2023/03/29 10:26:21;;;;;;;3.47;2.00;;;;;;;11.58;65.53;154333.38;5014365;28;20460;-77
2023/03/29 10:28:51;;;;;;;2.13;1.77;;;;;;;11.62;66.24;154343.75;5009759;28;20452;-77
2023/03/29 10:31:18;;;;;;;5.80;2.00;;;;;;;11.62;69.53;154343.75;5014114;28;21003;-77
2023/03/29 10:33:51;;;;;;;2.90;1.90;;;;;;;11.65;68.01;154351.50;5012702;28;20453;-77
2023/03/29 10:36:18;;;;;;;2.87;1.80;;;;;;;11.71;68.27;154365.81;5017395;28;20448;-77
2023/03/29 10:38:45;;;;;;;2.20;1.73;;;;;;;11.78;66.88;154385.22;5019046;28;20513;-76
2023/03/29 10:41:13;;;;;;;4.60;2.00;;;;;;;11.83;68.68;154398.22;5021420;28;20525;-77
2023/03/29 10:43:44;;;;;;;5.93;2.00;;;;;;;11.81;67.34;154393.00;5015909;28;20448;-77
2023/03/29 10:46:20;;;;;;;2.80;2.03;;;;;;;12.03;69.68;154450.06;5014883;28;20576;-77
2023/03/29 10:48:48;;;;;;;2.57;1.93;;;;;;;12.06;70.41;154457.84;5015088;28;20839;-77
2023/03/29 10:51:15;;;;;;;3.43;2.10;;;;;;;12.30;66.83;154517.47;5016048;28;20559;-77
2023/03/29 10:53:42;;;;;;;2.30;2.00;;;;;;;12.59;63.09;154592.69;5020070;28;20543;-77
2023/03/29 10:56:27;;;;;;;3.63;1.40;;;;;;;12.62;65.75;154600.47;5018015;28;20548;-77
2023/03/29 10:59:14;;;;;;;2.73;1.83;;;;;;;12.64;65.00;154605.66;5015668;28;20979;-77
2023/03/29 11:01:47;;;;;;;2.50;1.60;;;;;;;12.68;67.78;154616.03;5019623;28;20440;-77
2023/03/29 11:04:22;;;;;;;2.90;1.70;;;;;;;12.64;65.67;154605.66;5015888;28;21023;-77
2023/03/29 11:06:59;;;;;;;2.97;1.97;;;;;;;12.73;73.78;154630.28;5018831;28;20990;-77
2023/03/29 11:09:38;;;;;;;4.27;2.33;;;;;;;12.75;72.64;154634.19;5017763;28;20507;-78
2023/03/29 11:12:09;;;;;;;2.10;1.90;;;;;;;12.68;67.07;154617.31;5020612;28;20461;-77
2023/03/29 11:14:42;;;;;;;3.77;1.60;;;;;;;12.69;65.84;154619.91;5019356;28;20845;-77
2023/03/29 11:17:18;;;;;;;3.87;1.60;;;;;;;12.82;66.37;154652.31;5018353;28;20962;-77
2023/03/29 11:20:01;;;;;;;2.70;1.63;;;;;;;13.00;67.33;154697.75;5017068;28;20456;-77
2023/03/29 11:22:35;;;;;;;1.70;1.50;;;;;;;13.06;66.70;154713.28;5016368;28;20473;-77
2023/03/29 11:25:14;;;;;;;1.77;1.50;;;;;;;13.33;66.35;154783.44;5014448;28;20449;-77
2023/03/29 11:27:45;;;;;;;2.90;2.20;;;;;;;13.34;64.56;154787.28;5014855;28;20971;-76
2023/03/29 11:30:16;;;;;;;3.40;1.83;;;;;;;13.45;70.83;154813.28;5017367;28;20997;-77
2023/03/29 11:32:54;;;;;;;2.10;1.90;;;;;;;13.64;62.49;154863.88;5018420;28;20443;-77
2023/03/29 11:35:45;;;;;;;3.17;1.67;;;;;;;13.74;62.85;154888.56;5017324;28;20472;-77
2023/03/29 11:38:19;;;;;;;2.93;2.00;;;;;;;13.75;65.05;154891.13;5015746;28;20462;-77
2023/03/29 11:40:52;;;;;;;2.70;1.90;;;;;;;13.73;65.32;154885.94;5017033;28;20538;-77
2023/03/29 11:43:22;;;;;;;3.77;1.80;;;;;;;13.73;63.83;154885.94;5016343;28;20450;-77
2023/03/29 11:45:52;;;;;;;1.90;1.60;;;;;;;13.71;64.55;154880.78;5015932;28;20546;-77
2023/03/29 11:48:24;;;;;;;3.07;1.70;;;;;;;13.70;61.85;154878.16;5016236;28;20482;-77
2023/03/29 11:50:55;;;;;;;2.10;1.77;;;;;;;13.73;60.45;154887.25;5015294;28;20478;-77
2023/03/29 11:53:25;;;;;;;4.13;1.90;;;;;;;13.81;62.92;154906.72;5017837;28;20460;-76